Terminal Aerodrome Forecast
Issued by NWS Goodland, KS

Home | Current Version | Previous Version | Text Only | Print | Product List | Glossary On
Versions: 1 2 3 4 5 6 7 8 9 10 11 12 13 14 15
000
FTUS43 KGLD 232320
TAFGLD
TAF
KGLD 232320Z 2400/2424 34029G40KT 1SM -SN BLSN OVC020
      TEMPO 2400/2401 3SM BLSN
     FM240100 35025G35KT P6SM VCSH OVC020
     FM240300 33015G22KT P6SM SCT020
     FM240800 27010KT P6SM SKC
     FM242000 25012KT P6SM SKC=

USA.gov is the U.S. government's official web portal to all federal, state and local government web resources and services.